Mount Pleasant, Falkland Islands

9:38 AM FKST on August 31, 2015 (GMT -0300)
Mount Pleasant | | Change Station
CLOSE
Current Station
Airport
Location: Mount Pleasant,
Elevation: 243 ft
Nearby Weather Stations

Elev 243 ft 51.82 °S, 58.45 °W | Updated 38 minutes ago

Light Snow Showers
Light Showers Snow
34 °F
Feels Like 22 °F
N
23
Wind Variable Wind from WSW

Today
High -- | Low -- °F
--% Chance of Precip.
Yesterday
High -- | Low -- °F
Precip. -- in
7:33 AM 6:15 PM
Waning Gibbous, 95% visible
Pressure 29.62 in
Visibility 4.3 miles
Clouds Few 700 ft
Few 1900 ft
Scattered Clouds 2100 ft
Windchill 22 °F
Dew Point 32 °F
Humidity 93%
Rainfall 0.00 in
Snow Depth Not available.
UV 1 out of 12
Pollen Not available.
Air Quality Not available.
Flu Activity Not available.
METAR EGYP 311200Z 25020KT 7000 -SHSN FEW007 FEW019CB SCT021 01/M00 Q1003 WHT TEMPO 9999 NSW FEW021 BLU
Pressure 29.62 in
Visibility 4.3 miles
Clouds Few 700 ft
Few 1900 ft
Scattered Clouds 2100 ft
Windchill 22 °F
Dew Point 32 °F
Humidity 93%
Rainfall 0.00 in
Snow Depth Not available.
UV 1 out of 12
Pollen Not available.
Air Quality Not available.
Flu Activity Not available.
METAR EGYP 311200Z 25020KT 7000 -SHSN FEW007 FEW019CB SCT021 01/M00 Q1003 WHT TEMPO 9999 NSW FEW021 BLU

10-Day Weather Forecast

×

Almanac

Astronomy

Aug. 31, 2015 Rise Set
Actual Time
Civil Twilight
Nautical Twilight
Astronomical Twilight
Moon
Length of Visible Light
Length of Day
Tomorrow will be .
, % of the Moon is Illuminated

Today's Extremes

Country Highs Country Lows

Community

WunderPhotos

Upload Photos

1,851,222 photos uploaded!

WunderBlogs® & News

Nearby

Air Quality

  Air Quality AQ Index Pollutant
Not available.

Snow Depth

Station Depth Elevation

Earthquake Activity

City Distance Mag. Time & Date
Minimum magnitude displayed is 2.5.

Coastal Water Temperatures

Place Temperature

Stations

Nearby Weather Stations

Station Location Temp. Windchill Dew Point Humidity Wind Precip. Elev Updated Type